Pinckney, MI

20:31 EDT le 27 Mars 2015 (GMT -0400)
Ann Arbor Municipal | | Change Station
CLOSE
Current Station
Aéroport
Location: Ann Arbor,
Altitude: 837 ft
Stations météo à proximité

Alt. 837 ft 42.22 °N, 83.74 °W | Updated 38 minutes ago

Partiellement nuageux
Partiellement nuageux
23 ° F
Paraît 15 ° F
N
7
Vent Variable Vent de Nord

Aujourd'hui
Haut(e) -- | Bas -- ° F
--% Risque de précip.
Hier
Haut(e) -- | Bas -- ° F
Precip. -- pouce
7:27 AM 7:55 PM
Premier quartier, 57% visible
Pression 30.10 pouce
Visibilité 10.0 Miles terrestres
Nuages Peu 3600 ft
Nuages épars 4900 ft
Nuageux 6500 ft
Refroidissement éolien 15 ° F
Point de rosée 7 ° F
Humidité 50%
Précipitations 0.00 pouce
Profondeur de la couche neigeuse Non disponible.
UV 0 sur 12
Pollen 1.50 sur 12
Qualité de l'air Non disponible.
Flu Activity Non disponible.
METAR KARB 272353Z AUTO 01006KT 10SM FEW036 SCT049 BKN065 M05/M14 A3006 RMK AO2 SLP193 60000 T10501139 11022 21050 53009

More Conditions Fewer Conditions

Pression 30.10 pouce
Visibilité 10.0 Miles terrestres
Nuages Peu 3600 ft
Nuages épars 4900 ft
Nuageux 6500 ft
Refroidissement éolien 15 ° F
Point de rosée 7 ° F
Humidité 50%
Précipitations 0.00 pouce
Profondeur de la couche neigeuse Non disponible.
UV 0 sur 12
Pollen 1.50 sur 12
Qualité de l'air Non disponible.
Flu Activity Non disponible.
METAR KARB 272353Z AUTO 01006KT 10SM FEW036 SCT049 BKN065 M05/M14 A3006 RMK AO2 SLP193 60000 T10501139 11022 21050 53009

More Conditions Fewer Conditions

10-Day Weather Forecast

Almanac

Astronomie

Mar. 27, 2015 Lever Coucher
Temps réel
Crépuscule civil
Crépuscule nautique
Crépuscule astronomique
Lune
Durée de lumière visible
Longueur du jour
Tomorrow will be .
, % of the Moon is Illuminated

Extrêmes aujourd'hui

State Highs State Lows

Community

WunderPhotos

Upload Photos

1,808,887 Photos téléchargées !

WunderBlogs® & News

Nearby

Qualité de l'air

  Qualité de l'air Indice de la qualité de l'air Polluant
Not available.

Épaisseur de neige

Station Depth Altitude

Activité sismique

Ville Distance Mag. Time & Date
Minimum magnitude displayed is 2.5.

Températures des eaux côtières

Lieu Température

Stations

Stations météo à proximité

Emplacement de la station Température Refroidissement éolien Point de rosée Humidité Vent Precip. Alt. Mise à jour Type